createdAt,value
2016-07-04T00:00:14.771Z,1016.52
2016-07-04T00:01:14.757Z,1016.54
2016-07-04T00:02:14.756Z,1016.51
2016-07-04T00:03:14.755Z,1016.48
2016-07-04T00:04:14.752Z,1016.52
2016-07-04T00:05:14.954Z,1016.57
2016-07-04T00:06:14.750Z,1016.57
2016-07-04T00:07:14.749Z,1016.53
2016-07-04T00:08:14.743Z,1016.55
2016-07-04T00:09:14.748Z,1016.55
2016-07-04T00:10:14.747Z,1016.55
2016-07-04T00:11:14.739Z,1016.54
2016-07-04T00:12:14.742Z,1016.51
2016-07-04T00:13:14.739Z,1016.5
2016-07-04T00:14:14.738Z,1016.48
2016-07-04T00:15:14.733Z,1016.5
2016-07-04T00:16:14.733Z,1016.49
2016-07-04T00:17:14.731Z,1016.5
2016-07-04T00:18:14.743Z,1016.51
2016-07-04T00:19:14.732Z,1016.48
2016-07-04T00:20:14.737Z,1016.47
2016-07-04T00:21:14.726Z,1016.5
2016-07-04T00:22:14.722Z,1016.46
2016-07-04T00:23:14.724Z,1016.45
2016-07-04T00:24:14.718Z,1016.45
2016-07-04T00:25:14.719Z,1016.43
2016-07-04T00:26:14.712Z,1016.45
2016-07-04T00:27:14.716Z,1016.44
2016-07-04T00:28:14.712Z,1016.44
2016-07-04T00:29:14.711Z,1016.43
2016-07-04T00:30:14.712Z,1016.45
2016-07-04T00:31:14.707Z,1016.47
2016-07-04T00:32:14.704Z,1016.48
2016-07-04T00:33:14.706Z,1016.47
2016-07-04T00:34:14.703Z,1016.48
2016-07-04T00:35:14.701Z,1016.43
2016-07-04T00:36:14.695Z,1016.46
2016-07-04T00:37:14.691Z,1016.48
2016-07-04T00:38:14.696Z,1016.5
2016-07-04T00:39:14.693Z,1016.44
2016-07-04T00:40:14.694Z,1016.47
2016-07-04T00:41:14.691Z,1016.49
2016-07-04T00:42:14.690Z,1016.5
2016-07-04T00:43:14.688Z,1016.5
2016-07-04T00:44:14.684Z,1016.52
2016-07-04T00:45:14.683Z,1016.51
2016-07-04T00:46:14.680Z,1016.52
2016-07-04T00:47:14.679Z,1016.51
2016-07-04T00:48:14.676Z,1016.47
2016-07-04T00:49:14.676Z,1016.51
2016-07-04T00:50:14.675Z,1016.45
2016-07-04T00:51:14.673Z,1016.48
2016-07-04T00:52:14.670Z,1016.45
2016-07-04T00:53:14.670Z,1016.47
2016-07-04T00:54:14.669Z,1016.42
2016-07-04T00:55:14.866Z,1016.41
2016-07-04T00:56:14.665Z,1016.4
2016-07-04T00:57:14.662Z,1016.39
2016-07-04T00:58:14.659Z,1016.41
2016-07-04T00:59:14.660Z,1016.38
2016-07-04T01:00:14.653Z,1016.33
2016-07-04T01:01:14.657Z,1016.35
2016-07-04T01:02:14.656Z,1016.35
2016-07-04T01:03:14.653Z,1016.36
2016-07-04T01:04:14.653Z,1016.31
2016-07-04T01:05:14.649Z,1016.29
2016-07-04T01:06:14.648Z,1016.29
2016-07-04T01:07:14.646Z,1016.33
2016-07-04T01:08:14.700Z,1016.34
2016-07-04T01:09:14.643Z,1016.33
2016-07-04T01:10:14.641Z,1016.34
2016-07-04T01:11:14.698Z,1016.35
2016-07-04T01:12:14.637Z,1016.37
2016-07-04T01:13:14.634Z,1016.33
2016-07-04T01:14:14.631Z,1016.36
2016-07-04T01:15:14.628Z,1016.35
2016-07-04T01:16:14.625Z,1016.35
2016-07-04T01:17:14.625Z,1016.39
2016-07-04T01:18:14.631Z,1016.34
2016-07-04T01:19:14.618Z,1016.37
2016-07-04T01:20:14.623Z,1016.36
2016-07-04T01:21:14.616Z,1016.36
2016-07-04T01:22:14.616Z,1016.4
2016-07-04T01:23:14.615Z,1016.34
2016-07-04T01:24:14.613Z,1016.31
2016-07-04T01:25:14.613Z,1016.34
2016-07-04T01:26:14.606Z,1016.39
2016-07-04T01:27:14.603Z,1016.37
2016-07-04T01:28:14.602Z,1016.32
2016-07-04T01:29:14.606Z,1016.32
2016-07-04T01:30:14.802Z,1016.31
2016-07-04T01:31:14.600Z,1016.3
2016-07-04T01:32:14.599Z,1016.28
2016-07-04T01:33:14.594Z,1016.31
2016-07-04T01:34:14.592Z,1016.3
2016-07-04T01:35:14.792Z,1016.31
2016-07-04T01:36:14.588Z,1016.29
2016-07-04T01:37:14.588Z,1016.29
2016-07-04T01:38:14.586Z,1016.3
2016-07-04T01:39:14.583Z,1016.3
2016-07-04T01:40:14.577Z,1016.28
2016-07-04T01:41:14.581Z,1016.27
2016-07-04T01:42:14.576Z,1016.27
2016-07-04T01:43:14.577Z,1016.27
2016-07-04T01:44:14.576Z,1016.31
2016-07-04T01:45:14.570Z,1016.28
2016-07-04T01:46:14.570Z,1016.29
2016-07-04T01:47:14.566Z,1016.27
2016-07-04T01:48:14.570Z,1016.3
2016-07-04T01:49:14.562Z,1016.29
2016-07-04T01:50:14.763Z,1016.24
2016-07-04T01:51:14.558Z,1016.23
2016-07-04T01:52:14.558Z,1016.23
2016-07-04T01:53:14.557Z,1016.23
2016-07-04T01:54:14.554Z,1016.2
2016-07-04T01:55:14.550Z,1016.21
2016-07-04T01:56:14.551Z,1016.19
2016-07-04T01:57:14.545Z,1016.2
2016-07-04T01:58:14.545Z,1016.22
2016-07-04T01:59:14.543Z,1016.2
2016-07-04T02:00:14.539Z,1016.2
2016-07-04T02:01:14.539Z,1016.22
2016-07-04T02:02:14.536Z,1016.18
2016-07-04T02:03:14.537Z,1016.18
2016-07-04T02:04:14.529Z,1016.19
2016-07-04T02:05:14.528Z,1016.22
2016-07-04T02:06:14.528Z,1016.16
2016-07-04T02:07:14.525Z,1016.17
2016-07-04T02:08:14.728Z,1016.14
2016-07-04T02:09:14.521Z,1016.18
2016-07-04T02:10:14.520Z,1016.15
2016-07-04T02:11:14.522Z,1016.16
2016-07-04T02:12:14.517Z,1016.15
2016-07-04T02:13:14.523Z,1016.16
2016-07-04T02:14:14.515Z,1016.14
2016-07-04T02:15:14.512Z,1016.15
2016-07-04T02:16:14.514Z,1016.15
2016-07-04T02:17:14.517Z,1016.17
2016-07-04T02:18:14.505Z,1016.17
2016-07-04T02:19:14.498Z,1016.16
2016-07-04T02:20:14.498Z,1016.16
2016-07-04T02:21:14.500Z,1016.17
2016-07-04T02:22:14.509Z,1016.18
2016-07-04T02:23:14.495Z,1016.18
2016-07-04T02:24:14.492Z,1016.19
2016-07-04T02:25:14.489Z,1016.17
2016-07-04T02:26:14.492Z,1016.2
2016-07-04T02:27:14.487Z,1016.2
2016-07-04T02:28:14.485Z,1016.2
2016-07-04T02:29:14.483Z,1016.21
2016-07-04T02:30:14.476Z,1016.21
2016-07-04T02:31:14.478Z,1016.19
2016-07-04T02:32:14.475Z,1016.23
2016-07-04T02:33:14.474Z,1016.22
2016-07-04T02:34:14.472Z,1016.22
2016-07-04T02:35:14.469Z,1016.26
2016-07-04T02:36:14.667Z,1016.21
2016-07-04T02:37:14.465Z,1016.21
2016-07-04T02:38:14.461Z,1016.21
2016-07-04T02:39:14.463Z,1016.23
2016-07-04T02:40:14.454Z,1016.22
2016-07-04T02:41:14.452Z,1016.24
2016-07-04T02:42:14.453Z,1016.2
2016-07-04T02:43:14.450Z,1016.2
2016-07-04T02:44:14.449Z,1016.24
2016-07-04T02:45:14.442Z,1016.22
2016-07-04T02:46:14.444Z,1016.21
2016-07-04T02:47:14.440Z,1016.2
2016-07-04T02:48:14.436Z,1016.21
2016-07-04T02:49:14.437Z,1016.17
2016-07-04T02:50:14.435Z,1016.16
2016-07-04T02:51:14.431Z,1016.17
2016-07-04T02:52:14.433Z,1016.19
2016-07-04T02:53:14.428Z,1016.17
2016-07-04T02:54:14.432Z,1016.18
2016-07-04T02:55:14.424Z,1016.17
2016-07-04T02:56:14.422Z,1016.16
2016-07-04T02:57:14.421Z,1016.12
2016-07-04T02:58:14.416Z,1016.15
2016-07-04T02:59:14.416Z,1016.11
2016-07-04T03:00:14.613Z,1016.1
2016-07-04T03:01:14.411Z,1016.08
2016-07-04T03:02:14.405Z,1016.08
2016-07-04T03:03:14.402Z,1016.06
2016-07-04T03:04:14.403Z,1016.06
2016-07-04T03:05:14.404Z,1016.07
2016-07-04T03:06:14.398Z,1016.05
2016-07-04T03:07:14.396Z,1016.02
2016-07-04T03:08:14.397Z,1016.05
2016-07-04T03:09:14.393Z,1016.05
2016-07-04T03:10:14.388Z,1016.04
2016-07-04T03:11:14.588Z,1016.02
2016-07-04T03:12:14.386Z,1016
2016-07-04T03:13:14.379Z,1016.01
2016-07-04T03:14:14.380Z,1016.05
2016-07-04T03:15:14.377Z,1016
2016-07-04T03:16:14.371Z,1016.04
2016-07-04T03:17:14.370Z,1016.02
2016-07-04T03:18:14.379Z,1016.04
2016-07-04T03:19:14.369Z,1016.03
2016-07-04T03:20:14.360Z,1016.02
2016-07-04T03:21:14.359Z,1016.04
2016-07-04T03:22:14.360Z,1016.03
2016-07-04T03:23:14.355Z,1016.08
2016-07-04T03:24:14.354Z,1016.06
2016-07-04T03:25:14.349Z,1016.07
2016-07-04T03:26:14.349Z,1016.09
2016-07-04T03:27:14.352Z,1016.11
2016-07-04T03:28:14.349Z,1016.16
2016-07-04T03:29:14.347Z,1016.19
2016-07-04T03:30:14.341Z,1016.19
2016-07-04T03:31:14.342Z,1016.17
2016-07-04T03:32:14.335Z,1016.17
2016-07-04T03:33:14.335Z,1016.17
2016-07-04T03:34:14.332Z,1016.17
2016-07-04T03:35:14.327Z,1016.23
2016-07-04T03:36:14.326Z,1016.2
2016-07-04T03:37:14.323Z,1016.23
2016-07-04T03:38:14.320Z,1016.2
2016-07-04T03:39:14.322Z,1016.18
2016-07-04T03:40:14.520Z,1016.19
2016-07-04T03:41:14.314Z,1016.17
2016-07-04T03:42:14.309Z,1016.19
2016-07-04T03:43:14.311Z,1016.18
2016-07-04T03:44:14.310Z,1016.22
2016-07-04T03:45:14.307Z,1016.26
2016-07-04T03:46:14.301Z,1016.26
2016-07-04T03:47:14.303Z,1016.29
2016-07-04T03:48:14.301Z,1016.35
2016-07-04T03:49:14.295Z,1016.33
2016-07-04T03:50:14.293Z,1016.34
2016-07-04T03:51:14.291Z,1016.33
2016-07-04T03:52:14.289Z,1016.3
2016-07-04T03:53:14.283Z,1016.32
2016-07-04T03:54:14.288Z,1016.3
2016-07-04T03:55:14.280Z,1016.3
2016-07-04T03:56:14.279Z,1016.28
2016-07-04T03:57:14.275Z,1016.23
2016-07-04T03:58:14.277Z,1016.28
2016-07-04T03:59:14.273Z,1016.32
2016-07-04T04:00:14.272Z,1016.32
2016-07-04T04:01:14.276Z,1016.31
2016-07-04T04:02:14.265Z,1016.3
2016-07-04T04:03:14.263Z,1016.34
2016-07-04T04:04:14.260Z,1016.34
2016-07-04T04:05:14.455Z,1016.34
2016-07-04T04:06:14.453Z,1016.38
2016-07-04T04:07:14.249Z,1016.38
2016-07-04T04:08:14.248Z,1016.33
2016-07-04T04:09:14.248Z,1016.32
2016-07-04T04:10:14.447Z,1016.33
2016-07-04T04:11:14.293Z,1016.31
2016-07-04T04:12:14.242Z,1016.33
2016-07-04T04:13:14.439Z,1016.34
2016-07-04T04:14:14.236Z,1016.31
2016-07-04T04:15:14.236Z,1016.34
2016-07-04T04:16:14.235Z,1016.33
2016-07-04T04:17:14.229Z,1016.35
2016-07-04T04:18:14.432Z,1016.38
2016-07-04T04:19:14.225Z,1016.39
2016-07-04T04:20:14.226Z,1016.38
2016-07-04T04:21:14.224Z,1016.4
2016-07-04T04:22:14.223Z,1016.37
2016-07-04T04:23:14.218Z,1016.35
2016-07-04T04:24:14.215Z,1016.37
2016-07-04T04:25:14.215Z,1016.35
2016-07-04T04:26:14.209Z,1016.35
2016-07-04T04:27:14.212Z,1016.39
2016-07-04T04:28:14.213Z,1016.37
2016-07-04T04:29:14.206Z,1016.35
2016-07-04T04:30:14.203Z,1016.35
2016-07-04T04:31:14.207Z,1016.35
2016-07-04T04:32:14.200Z,1016.37
2016-07-04T04:33:14.199Z,1016.35
2016-07-04T04:34:14.196Z,1016.36
2016-07-04T04:35:14.190Z,1016.35
2016-07-04T04:36:14.190Z,1016.38
2016-07-04T04:37:14.186Z,1016.4
2016-07-04T04:38:14.184Z,1016.38
2016-07-04T04:39:14.181Z,1016.41
2016-07-04T04:40:14.181Z,1016.36
2016-07-04T04:41:14.178Z,1016.38
2016-07-04T04:42:14.178Z,1016.4
2016-07-04T04:43:14.170Z,1016.4
2016-07-04T04:44:14.170Z,1016.38
2016-07-04T04:45:14.168Z,1016.42
2016-07-04T04:46:14.166Z,1016.37
2016-07-04T04:47:14.165Z,1016.41
2016-07-04T04:48:14.161Z,1016.4
2016-07-04T04:49:14.160Z,1016.39
2016-07-04T04:50:14.158Z,1016.43
2016-07-04T04:51:14.179Z,1016.39
2016-07-04T04:52:14.150Z,1016.42
2016-07-04T04:53:14.153Z,1016.38
2016-07-04T04:54:14.148Z,1016.38
2016-07-04T04:55:14.144Z,1016.4
2016-07-04T04:56:14.143Z,1016.39
2016-07-04T04:57:14.140Z,1016.4
2016-07-04T04:58:14.138Z,1016.42
2016-07-04T04:59:14.135Z,1016.4
2016-07-04T05:00:14.131Z,1016.38
2016-07-04T05:01:14.129Z,1016.44
2016-07-04T05:02:14.127Z,1016.41
2016-07-04T05:03:14.127Z,1016.44
2016-07-04T05:04:14.121Z,1016.46
2016-07-04T05:05:14.127Z,1016.46
2016-07-04T05:06:14.117Z,1016.46
2016-07-04T05:07:14.118Z,1016.42
2016-07-04T05:08:14.117Z,1016.48
2016-07-04T05:09:14.113Z,1016.48
2016-07-04T05:10:14.110Z,1016.48
2016-07-04T05:11:14.156Z,1016.48
2016-07-04T05:12:14.107Z,1016.48
2016-07-04T05:13:14.104Z,1016.49
2016-07-04T05:14:14.100Z,1016.5
2016-07-04T05:15:14.096Z,1016.49
2016-07-04T05:16:14.093Z,1016.51
2016-07-04T05:17:14.091Z,1016.56
2016-07-04T05:18:14.092Z,1016.54
2016-07-04T05:19:14.087Z,1016.55
2016-07-04T05:20:14.088Z,1016.51
2016-07-04T05:21:14.082Z,1016.54
2016-07-04T05:22:14.080Z,1016.52
2016-07-04T05:23:14.078Z,1016.58
2016-07-04T05:24:14.076Z,1016.56
2016-07-04T05:25:14.072Z,1016.57
2016-07-04T05:26:14.068Z,1016.57
2016-07-04T05:27:14.069Z,1016.55
2016-07-04T05:28:14.064Z,1016.6
2016-07-04T05:29:14.062Z,1016.64
2016-07-04T05:30:14.055Z,1016.66
2016-07-04T05:31:14.053Z,1016.65
2016-07-04T05:32:14.051Z,1016.65
2016-07-04T05:33:14.053Z,1016.65
2016-07-04T05:34:14.046Z,1016.66
2016-07-04T05:35:14.044Z,1016.66
2016-07-04T05:36:14.045Z,1016.63
2016-07-04T05:37:14.061Z,1016.65
2016-07-04T05:38:19.064Z,1016.65
2016-07-04T05:39:14.036Z,1016.64
2016-07-04T05:40:14.026Z,1016.65
2016-07-04T05:41:14.030Z,1016.65
2016-07-04T05:42:14.023Z,1016.64
2016-07-04T05:43:14.021Z,1016.63
2016-07-04T05:44:14.019Z,1016.63
2016-07-04T05:45:14.218Z,1016.63
2016-07-04T05:46:14.014Z,1016.63
2016-07-04T05:47:14.009Z,1016.62
2016-07-04T05:48:14.004Z,1016.61
2016-07-04T05:49:14.003Z,1016.62
2016-07-04T05:50:14.002Z,1016.63
2016-07-04T05:51:14.202Z,1016.59
2016-07-04T05:52:13.995Z,1016.62
2016-07-04T05:53:13.994Z,1016.58
2016-07-04T05:54:13.989Z,1016.53
2016-07-04T05:55:13.991Z,1016.57
2016-07-04T05:56:13.992Z,1016.57
2016-07-04T05:57:13.987Z,1016.54
2016-07-04T05:58:13.979Z,1016.58
2016-07-04T05:59:13.983Z,1016.58
2016-07-04T06:00:13.982Z,1016.58
2016-07-04T06:01:13.978Z,1016.58
2016-07-04T06:02:13.975Z,1016.59
2016-07-04T06:03:13.972Z,1016.61
2016-07-04T06:04:13.970Z,1016.58
2016-07-04T06:05:13.970Z,1016.61
2016-07-04T06:06:13.964Z,1016.63
2016-07-04T06:07:13.966Z,1016.65
2016-07-04T06:08:13.962Z,1016.65
2016-07-04T06:09:13.956Z,1016.62
2016-07-04T06:10:13.955Z,1016.64
2016-07-04T06:11:13.953Z,1016.62
2016-07-04T06:12:13.946Z,1016.64
2016-07-04T06:13:13.945Z,1016.67
2016-07-04T06:14:13.952Z,1016.66
2016-07-04T06:15:13.945Z,1016.66
2016-07-04T06:16:13.939Z,1016.64
2016-07-04T06:17:13.939Z,1016.67
2016-07-04T06:18:13.936Z,1016.67
2016-07-04T06:19:13.932Z,1016.67
2016-07-04T06:20:13.930Z,1016.64
2016-07-04T06:21:13.927Z,1016.67
2016-07-04T06:22:13.929Z,1016.62
2016-07-04T06:23:13.927Z,1016.64
2016-07-04T06:24:13.920Z,1016.63
2016-07-04T06:25:13.922Z,1016.65
2016-07-04T06:26:13.915Z,1016.68
2016-07-04T06:27:13.917Z,1016.66
2016-07-04T06:28:13.919Z,1016.64
2016-07-04T06:29:13.909Z,1016.65
2016-07-04T06:30:13.906Z,1016.65
2016-07-04T06:31:13.898Z,1016.67
2016-07-04T06:32:13.900Z,1016.66
2016-07-04T06:33:13.898Z,1016.64
2016-07-04T06:34:13.896Z,1016.65
2016-07-04T06:35:13.890Z,1016.65
2016-07-04T06:36:13.888Z,1016.6
2016-07-04T06:37:13.887Z,1016.62
2016-07-04T06:38:13.882Z,1016.66
2016-07-04T06:39:13.876Z,1016.64
2016-07-04T06:40:13.879Z,1016.63
2016-07-04T06:41:13.879Z,1016.63
2016-07-04T06:42:13.875Z,1016.61
2016-07-04T06:43:13.866Z,1016.65
2016-07-04T06:44:13.863Z,1016.66
2016-07-04T06:45:13.887Z,1016.67
2016-07-04T06:46:13.860Z,1016.66
2016-07-04T06:47:13.857Z,1016.67
2016-07-04T06:48:13.853Z,1016.62
2016-07-04T06:49:13.851Z,1016.68
2016-07-04T06:50:13.849Z,1016.68
2016-07-04T06:51:13.851Z,1016.68
2016-07-04T06:52:13.847Z,1016.66
2016-07-04T06:53:13.841Z,1016.67
2016-07-04T06:54:13.839Z,1016.64
2016-07-04T06:55:13.840Z,1016.61
2016-07-04T06:56:13.833Z,1016.63
2016-07-04T06:57:13.833Z,1016.65
2016-07-04T06:58:13.829Z,1016.66
2016-07-04T06:59:14.031Z,1016.65
2016-07-04T07:00:13.826Z,1016.61
2016-07-04T07:01:13.822Z,1016.69
2016-07-04T07:02:13.820Z,1016.67
2016-07-04T07:03:13.818Z,1016.68
2016-07-04T07:04:13.815Z,1016.66
2016-07-04T07:05:13.808Z,1016.65
2016-07-04T07:06:13.812Z,1016.64
2016-07-04T07:07:13.808Z,1016.68
2016-07-04T07:08:13.803Z,1016.63
2016-07-04T07:09:13.804Z,1016.65
2016-07-04T07:10:13.802Z,1016.65
2016-07-04T07:11:13.803Z,1016.67
2016-07-04T07:12:13.798Z,1016.65
2016-07-04T07:13:13.791Z,1016.65
2016-07-04T07:14:13.791Z,1016.65
2016-07-04T07:15:13.788Z,1016.68
2016-07-04T07:16:13.788Z,1016.62
2016-07-04T07:17:13.794Z,1016.65
2016-07-04T07:18:14.010Z,1016.65
2016-07-04T07:19:13.778Z,1016.69
2016-07-04T07:20:14.581Z,1016.67
2016-07-04T07:21:13.975Z,1016.65
2016-07-04T07:22:13.775Z,1016.63
2016-07-04T07:23:13.770Z,1016.67
2016-07-04T07:24:13.967Z,1016.64
2016-07-04T07:25:13.767Z,1016.63
2016-07-04T07:26:13.762Z,1016.64
2016-07-04T07:27:13.761Z,1016.66
2016-07-04T07:28:13.757Z,1016.59
2016-07-04T07:29:13.754Z,1016.64
2016-07-04T07:30:13.754Z,1016.62
2016-07-04T07:31:13.751Z,1016.62
2016-07-04T07:32:13.757Z,1016.6
2016-07-04T07:33:13.750Z,1016.58
2016-07-04T07:34:13.741Z,1016.54
2016-07-04T07:35:13.746Z,1016.58
2016-07-04T07:36:13.738Z,1016.57
2016-07-04T07:37:13.770Z,1016.61
2016-07-04T07:38:13.735Z,1016.61
2016-07-04T07:39:13.735Z,1016.59
2016-07-04T07:40:13.729Z,1016.57
2016-07-04T07:41:13.726Z,1016.6
2016-07-04T07:42:13.725Z,1016.6
2016-07-04T07:43:13.722Z,1016.62
2016-07-04T07:44:13.723Z,1016.6
2016-07-04T07:45:13.720Z,1016.58
2016-07-04T07:46:13.714Z,1016.55
2016-07-04T07:47:13.713Z,1016.57
2016-07-04T07:48:13.712Z,1016.54
2016-07-04T07:49:13.709Z,1016.54
2016-07-04T07:50:13.703Z,1016.57
2016-07-04T07:51:13.705Z,1016.55
2016-07-04T07:52:13.703Z,1016.52
2016-07-04T07:53:13.703Z,1016.52
2016-07-04T07:54:13.960Z,1016.5
2016-07-04T07:55:13.898Z,1016.5
2016-07-04T07:56:13.696Z,1016.49
2016-07-04T07:57:13.692Z,1016.51
2016-07-04T07:58:13.690Z,1016.52
2016-07-04T07:59:13.688Z,1016.47
2016-07-04T08:00:13.685Z,1016.5
2016-07-04T08:01:13.686Z,1016.52
2016-07-04T08:02:13.682Z,1016.48
2016-07-04T08:03:13.677Z,1016.53
2016-07-04T08:04:13.679Z,1016.52
2016-07-04T08:05:13.677Z,1016.53
2016-07-04T08:06:13.674Z,1016.52
2016-07-04T08:07:13.672Z,1016.54
2016-07-04T08:08:13.670Z,1016.52
2016-07-04T08:09:13.664Z,1016.57
2016-07-04T08:10:13.663Z,1016.51
2016-07-04T08:11:13.663Z,1016.51
2016-07-04T08:12:14.328Z,1016.52
2016-07-04T08:13:13.656Z,1016.5
2016-07-04T08:14:13.876Z,1016.45
2016-07-04T08:15:13.651Z,1016.48
2016-07-04T08:16:13.650Z,1016.48
2016-07-04T08:17:13.650Z,1016.51
2016-07-04T08:18:13.648Z,1016.48
2016-07-04T08:19:13.647Z,1016.45
2016-07-04T08:20:13.643Z,1016.51
2016-07-04T08:21:13.638Z,1016.51
2016-07-04T08:22:13.636Z,1016.49
2016-07-04T08:23:13.633Z,1016.52
2016-07-04T08:24:13.639Z,1016.52
2016-07-04T08:25:13.627Z,1016.48
2016-07-04T08:26:13.633Z,1016.52
2016-07-04T08:27:13.827Z,1016.48
2016-07-04T08:28:13.618Z,1016.52
2016-07-04T08:29:13.620Z,1016.51
2016-07-04T08:30:13.626Z,1016.57
2016-07-04T08:31:13.618Z,1016.59
2016-07-04T08:32:13.615Z,1016.57
2016-07-04T08:33:13.634Z,1016.53
2016-07-04T08:34:13.611Z,1016.55
2016-07-04T08:35:13.609Z,1016.53
2016-07-04T08:36:13.605Z,1016.51
2016-07-04T08:37:13.606Z,1016.58
2016-07-04T08:38:13.603Z,1016.52
2016-07-04T08:39:13.599Z,1016.55
2016-07-04T08:40:13.598Z,1016.56
2016-07-04T08:41:13.596Z,1016.53
2016-07-04T08:42:13.598Z,1016.49
2016-07-04T08:43:13.589Z,1016.52
2016-07-04T08:44:13.592Z,1016.52
2016-07-04T08:45:14.823Z,1016.5
2016-07-04T08:46:25.444Z,1016.5
2016-07-04T08:47:13.583Z,1016.43
2016-07-04T08:48:13.580Z,1016.47
2016-07-04T08:49:13.578Z,1016.43
2016-07-04T08:50:13.577Z,1016.41
2016-07-04T08:51:13.902Z,1016.42
2016-07-04T08:52:29.797Z,1016.41
2016-07-04T08:53:29.795Z,1016.4
2016-07-04T08:54:30.538Z,1016.37
2016-07-04T08:55:29.787Z,1016.37
2016-07-04T08:56:31.199Z,1016.34
2016-07-04T08:57:42.567Z,1016.36
2016-07-04T08:58:29.803Z,1016.34
2016-07-04T08:59:29.785Z,1016.34
2016-07-04T09:25:53.783Z,1016.32
2016-07-04T09:26:53.783Z,1016.31
2016-07-04T09:27:53.782Z,1016.27
2016-07-04T09:28:53.778Z,1016.3
2016-07-04T09:29:53.776Z,1016.27
2016-07-04T09:30:53.775Z,1016.25
2016-07-04T09:31:53.776Z,1016.18
2016-07-04T09:32:53.973Z,1016.22
2016-07-04T09:33:53.766Z,1016.2
2016-07-04T09:34:53.761Z,1016.2
2016-07-04T09:35:53.763Z,1016.18
2016-07-04T09:36:53.765Z,1016.15
2016-07-04T09:37:53.759Z,1016.13
2016-07-04T09:38:53.754Z,1016.16
2016-07-04T09:39:53.756Z,1016.16
2016-07-04T09:40:53.753Z,1016.14
2016-07-04T09:41:53.753Z,1016.13
2016-07-04T09:42:53.946Z,1016.12
2016-07-04T09:43:53.762Z,1016.12
2016-07-04T09:44:53.745Z,1016.11
2016-07-04T09:45:53.741Z,1016.12
2016-07-04T09:46:53.739Z,1016.12
2016-07-04T09:47:53.735Z,1016.08
2016-07-04T09:48:53.731Z,1016.12
2016-07-04T09:49:53.739Z,1016.12
2016-07-04T09:50:53.748Z,1016.13
2016-07-04T09:51:53.738Z,1016.13
2016-07-04T09:52:53.729Z,1016.1
2016-07-04T09:53:53.746Z,1016.1
2016-07-04T09:54:53.741Z,1016.1
2016-07-04T09:55:53.942Z,1016.12
2016-07-04T09:56:53.723Z,1016.08
2016-07-04T09:57:53.724Z,1016.06
2016-07-04T09:58:53.720Z,1016.07
2016-07-04T09:59:53.719Z,1016.06
2016-07-04T10:00:53.716Z,1016.06
2016-07-04T10:01:53.715Z,1016.04
2016-07-04T10:02:53.715Z,1016.04
2016-07-04T10:03:53.714Z,1016.05
2016-07-04T10:04:53.710Z,1016.05
2016-07-04T10:05:53.709Z,1016.08
2016-07-04T10:06:53.707Z,1016.04
2016-07-04T10:07:53.707Z,1016.06
2016-07-04T10:08:53.705Z,1016.04
2016-07-04T10:09:53.720Z,1016.04
2016-07-04T10:10:53.701Z,1016.08
2016-07-04T10:11:53.751Z,1016.08
2016-07-04T10:12:53.701Z,1016.07
2016-07-04T10:13:53.696Z,1016.07
2016-07-04T10:14:53.695Z,1016.02
2016-07-04T10:15:53.694Z,1016.03
2016-07-04T10:16:53.694Z,1016.04
2016-07-04T10:17:53.686Z,1016.04
2016-07-04T10:18:53.682Z,1016.05
2016-07-04T10:19:53.685Z,1016.01
2016-07-04T10:20:53.887Z,1016.04
2016-07-04T10:21:53.681Z,1016.04
2016-07-04T10:22:53.679Z,1016.03
2016-07-04T10:23:53.682Z,1016.02
2016-07-04T10:24:53.681Z,1016.03
2016-07-04T10:25:53.677Z,1016.05
2016-07-04T10:26:53.675Z,1016.03
2016-07-04T10:27:53.674Z,1016.04
2016-07-04T10:28:53.873Z,1016.01
2016-07-04T10:29:53.674Z,1015.97
2016-07-04T10:30:53.666Z,1015.96
2016-07-04T10:31:53.667Z,1015.99
2016-07-04T10:32:53.663Z,1015.92
2016-07-04T10:33:53.664Z,1015.97
2016-07-04T10:34:53.663Z,1015.94
2016-07-04T10:35:53.664Z,1015.91
2016-07-04T10:36:53.864Z,1015.9
2016-07-04T10:37:53.661Z,1015.89
2016-07-04T10:38:53.657Z,1015.86
2016-07-04T10:39:53.654Z,1015.9
2016-07-04T10:40:53.653Z,1015.89
2016-07-04T10:41:53.654Z,1015.83
2016-07-04T10:42:53.651Z,1015.86
2016-07-04T10:43:53.654Z,1015.88
2016-07-04T10:44:53.651Z,1015.87
2016-07-04T10:45:53.655Z,1015.85
2016-07-04T10:46:53.648Z,1015.82
2016-07-04T10:47:53.648Z,1015.79
2016-07-04T10:48:53.644Z,1015.83
2016-07-04T10:49:53.645Z,1015.81
2016-07-04T10:50:53.638Z,1015.82
2016-07-04T10:51:53.640Z,1015.78
2016-07-04T10:52:53.639Z,1015.78
2016-07-04T10:53:53.638Z,1015.78
2016-07-04T10:54:53.633Z,1015.76
2016-07-04T10:55:53.633Z,1015.76
2016-07-04T10:56:53.632Z,1015.72
2016-07-04T10:57:53.630Z,1015.7
2016-07-04T10:58:53.625Z,1015.7
2016-07-04T10:59:53.625Z,1015.64
2016-07-04T11:00:53.621Z,1015.67
2016-07-04T11:01:53.628Z,1015.66
2016-07-04T11:02:53.623Z,1015.62
2016-07-04T11:03:53.619Z,1015.67
2016-07-04T11:04:53.620Z,1015.67
2016-07-04T11:05:53.617Z,1015.66
2016-07-04T11:06:53.617Z,1015.61
2016-07-04T11:07:53.619Z,1015.61
2016-07-04T11:08:53.615Z,1015.56
2016-07-04T11:09:53.614Z,1015.53
2016-07-04T11:10:53.614Z,1015.54
2016-07-04T11:11:53.660Z,1015.54
2016-07-04T11:12:53.607Z,1015.55
2016-07-04T11:13:53.610Z,1015.52
2016-07-04T11:14:53.808Z,1015.52
2016-07-04T11:15:53.607Z,1015.48
2016-07-04T11:16:53.606Z,1015.5
2016-07-04T11:17:53.615Z,1015.51
2016-07-04T11:18:53.604Z,1015.52
2016-07-04T11:19:53.600Z,1015.53
2016-07-04T11:20:53.601Z,1015.51
2016-07-04T11:21:53.596Z,1015.52
2016-07-04T11:22:53.595Z,1015.51
2016-07-04T11:23:53.594Z,1015.49
2016-07-04T11:24:53.593Z,1015.48
2016-07-04T11:25:53.593Z,1015.46
2016-07-04T11:26:53.594Z,1015.52
2016-07-04T11:27:53.593Z,1015.48
2016-07-04T11:28:53.591Z,1015.49
2016-07-04T11:29:53.787Z,1015.47
2016-07-04T11:30:53.586Z,1015.42
2016-07-04T11:31:53.788Z,1015.43
2016-07-04T11:32:53.582Z,1015.48
2016-07-04T11:33:53.585Z,1015.47
2016-07-04T11:34:53.582Z,1015.43
2016-07-04T11:35:53.579Z,1015.48
2016-07-04T11:36:53.578Z,1015.46
2016-07-04T11:37:53.576Z,1015.43
2016-07-04T11:38:53.576Z,1015.4
2016-07-04T11:39:53.571Z,1015.45
2016-07-04T11:40:53.574Z,1015.4
2016-07-04T11:41:53.572Z,1015.41
2016-07-04T11:42:53.570Z,1015.42
2016-07-04T11:43:53.571Z,1015.38
2016-07-04T11:44:53.568Z,1015.37
2016-07-04T11:45:53.566Z,1015.36
2016-07-04T11:46:53.563Z,1015.39
2016-07-04T11:47:53.568Z,1015.39
2016-07-04T11:48:53.559Z,1015.4
2016-07-04T11:49:53.563Z,1015.4
2016-07-04T11:50:53.561Z,1015.36
2016-07-04T11:51:53.558Z,1015.33
2016-07-04T11:52:53.557Z,1015.37
2016-07-04T11:53:53.558Z,1015.38
2016-07-04T11:54:53.557Z,1015.39
2016-07-04T11:55:53.553Z,1015.35
2016-07-04T11:56:53.550Z,1015.35
2016-07-04T11:57:53.555Z,1015.37
2016-07-04T11:58:53.556Z,1015.35
2016-07-04T11:59:53.548Z,1015.34
2016-07-04T12:00:53.550Z,1015.28
2016-07-04T12:01:53.549Z,1015.3
2016-07-04T12:02:53.549Z,1015.3
2016-07-04T12:03:53.547Z,1015.27
2016-07-04T12:04:53.547Z,1015.29
2016-07-04T12:05:53.544Z,1015.31
2016-07-04T12:06:53.541Z,1015.31
2016-07-04T12:07:53.539Z,1015.29
2016-07-04T12:08:53.539Z,1015.27
2016-07-04T12:09:53.543Z,1015.24
2016-07-04T12:10:53.539Z,1015.25
2016-07-04T12:11:53.590Z,1015.22
2016-07-04T12:12:53.538Z,1015.21
2016-07-04T12:13:53.534Z,1015.24
2016-07-04T12:14:53.527Z,1015.22
2016-07-04T12:15:53.530Z,1015.2
2016-07-04T12:16:53.532Z,1015.18
2016-07-04T12:17:53.533Z,1015.19
2016-07-04T12:18:53.530Z,1015.13
2016-07-04T12:19:53.526Z,1015.16
2016-07-04T12:20:53.523Z,1015.13
2016-07-04T12:21:53.528Z,1015.07
2016-07-04T12:22:53.525Z,1015.1
2016-07-04T12:23:53.521Z,1015.1
2016-07-04T12:24:53.526Z,1015.1
2016-07-04T12:25:53.525Z,1015.12
2016-07-04T12:26:53.523Z,1015.17
2016-07-04T12:27:53.523Z,1015.16
2016-07-04T12:28:53.522Z,1015.13
2016-07-04T12:29:53.518Z,1015.14
2016-07-04T12:30:53.518Z,1015.16
2016-07-04T12:31:53.518Z,1015.14
2016-07-04T12:32:53.516Z,1015.09
2016-07-04T12:33:53.511Z,1015.12